sensor_id;sensor_type;location;lat;lon;timestamp;pressure;altitude;pressure_sealevel;temperature;humidity
73600;BME280;61877;48.246;9.220;2022-12-07T00:01:17;94036.34;;;1.66;89.93
73600;BME280;61877;48.246;9.220;2022-12-07T00:03:44;94032.72;;;1.62;90.42
73600;BME280;61877;48.246;9.220;2022-12-07T00:06:12;94034.03;;;1.60;90.61
73600;BME280;61877;48.246;9.220;2022-12-07T00:08:40;94028.19;;;1.63;90.57
73600;BME280;61877;48.246;9.220;2022-12-07T00:11:07;94031.41;;;1.60;90.71
73600;BME280;61877;48.246;9.220;2022-12-07T00:13:34;94027.19;;;1.59;90.57
73600;BME280;61877;48.246;9.220;2022-12-07T00:16:01;94028.75;;;1.60;90.77
73600;BME280;61877;48.246;9.220;2022-12-07T00:18:27;94028.47;;;1.61;90.96
73600;BME280;61877;48.246;9.220;2022-12-07T00:20:52;94026.63;;;1.62;90.82
73600;BME280;61877;48.246;9.220;2022-12-07T00:23:19;94023.19;;;1.61;90.73
73600;BME280;61877;48.246;9.220;2022-12-07T00:25:45;94026.13;;;1.60;90.82
73600;BME280;61877;48.246;9.220;2022-12-07T00:28:11;94025.34;;;1.59;91.06
73600;BME280;61877;48.246;9.220;2022-12-07T00:30:36;94016.63;;;1.59;91.03
73600;BME280;61877;48.246;9.220;2022-12-07T00:33:02;94021.13;;;1.58;90.87
73600;BME280;61877;48.246;9.220;2022-12-07T00:35:27;94016.09;;;1.57;90.69
73600;BME280;61877;48.246;9.220;2022-12-07T00:37:52;94015.81;;;1.58;91.19
73600;BME280;61877;48.246;9.220;2022-12-07T00:40:18;94012.91;;;1.60;91.00
73600;BME280;61877;48.246;9.220;2022-12-07T00:42:45;94018.84;;;1.70;89.72
73600;BME280;61877;48.246;9.220;2022-12-07T00:45:10;94013.91;;;1.64;90.27
73600;BME280;61877;48.246;9.220;2022-12-07T00:47:35;94011.28;;;1.64;90.79
73600;BME280;61877;48.246;9.220;2022-12-07T00:50:01;94008.13;;;1.62;90.69
73600;BME280;61877;48.246;9.220;2022-12-07T00:52:26;94015.41;;;1.70;90.58
73600;BME280;61877;48.246;9.220;2022-12-07T00:54:52;94008.84;;;1.67;90.51
73600;BME280;61877;48.246;9.220;2022-12-07T00:57:17;94004.91;;;1.65;90.87
73600;BME280;61877;48.246;9.220;2022-12-07T00:59:44;94008.84;;;1.67;90.60
73600;BME280;61877;48.246;9.220;2022-12-07T01:02:10;94003.34;;;1.64;90.48
73600;BME280;61877;48.246;9.220;2022-12-07T01:04:35;94005.41;;;1.67;91.04
73600;BME280;61877;48.246;9.220;2022-12-07T01:07:01;94009.63;;;1.68;90.96
73600;BME280;61877;48.246;9.220;2022-12-07T01:09:26;94006.50;;;1.66;90.65
73600;BME280;61877;48.246;9.220;2022-12-07T01:11:51;94008.84;;;1.67;90.21
73600;BME280;61877;48.246;9.220;2022-12-07T01:14:17;94002.78;;;1.67;90.52
73600;BME280;61877;48.246;9.220;2022-12-07T01:16:44;94005.69;;;1.65;90.41
73600;BME280;61877;48.246;9.220;2022-12-07T01:19:09;94005.97;;;1.64;90.70
73600;BME280;61877;48.246;9.220;2022-12-07T01:21:34;94008.41;;;1.60;90.80
73600;BME280;61877;48.246;9.220;2022-12-07T01:24:00;94009.47;;;1.59;90.96
73600;BME280;61877;48.246;9.220;2022-12-07T01:26:28;94008.06;;;1.67;90.63
73600;BME280;61877;48.246;9.220;2022-12-07T01:28:54;94003.84;;;1.66;90.27
73600;BME280;61877;48.246;9.220;2022-12-07T01:31:24;93999.63;;;1.65;90.51
73600;BME280;61877;48.246;9.220;2022-12-07T01:33:53;94006.84;;;1.59;90.59
73600;BME280;61877;48.246;9.220;2022-12-07T01:36:20;94013.69;;;1.60;90.58
73600;BME280;61877;48.246;9.220;2022-12-07T01:38:47;94018.50;;;1.77;89.84
73600;BME280;61877;48.246;9.220;2022-12-07T01:41:14;94013.22;;;1.77;89.75
73600;BME280;61877;48.246;9.220;2022-12-07T01:46:52;94011.97;;;1.69;90.17
73600;BME280;61877;48.246;9.220;2022-12-07T01:49:25;94009.06;;;1.71;89.84
73600;BME280;61877;48.246;9.220;2022-12-07T01:51:56;94008.34;;;1.65;90.02
73600;BME280;61877;48.246;9.220;2022-12-07T01:54:24;94009.97;;;1.61;90.26
73600;BME280;61877;48.246;9.220;2022-12-07T01:56:51;94007.03;;;1.63;90.39
73600;BME280;61877;48.246;9.220;2022-12-07T01:59:19;94011.84;;;1.61;90.60
73600;BME280;61877;48.246;9.220;2022-12-07T02:01:47;94010.25;;;1.60;90.80
73600;BME280;61877;48.246;9.220;2022-12-07T02:04:13;94009.75;;;1.58;90.83
73600;BME280;61877;48.246;9.220;2022-12-07T02:06:41;94009.97;;;1.61;90.64
73600;BME280;61877;48.246;9.220;2022-12-07T02:09:08;94012.38;;;1.58;90.99
73600;BME280;61877;48.246;9.220;2022-12-07T02:11:33;94010.88;;;1.52;91.35
73600;BME280;61877;48.246;9.220;2022-12-07T02:13:59;94005.59;;;1.52;91.30
73600;BME280;61877;48.246;9.220;2022-12-07T02:16:29;94008.25;;;1.52;91.23
73600;BME280;61877;48.246;9.220;2022-12-07T02:21:51;94015.88;;;1.53;91.06
73600;BME280;61877;48.246;9.220;2022-12-07T02:24:44;94003.69;;;1.57;90.99
73600;BME280;61877;48.246;9.220;2022-12-07T02:27:32;94011.34;;;1.59;90.97
73600;BME280;61877;48.246;9.220;2022-12-07T02:30:03;94011.63;;;1.57;90.70
73600;BME280;61877;48.246;9.220;2022-12-07T02:32:42;94008.34;;;1.65;90.54
73600;BME280;61877;48.246;9.220;2022-12-07T02:35:12;94011.28;;;1.64;90.66
73600;BME280;61877;48.246;9.220;2022-12-07T02:37:42;94003.34;;;1.64;90.47
73600;BME280;61877;48.246;9.220;2022-12-07T02:40:14;94005.25;;;1.58;91.18
73600;BME280;61877;48.246;9.220;2022-12-07T02:42:45;94006.56;;;1.61;91.01
73600;BME280;61877;48.246;9.220;2022-12-07T02:45:17;94002.31;;;1.60;91.37
73600;BME280;61877;48.246;9.220;2022-12-07T02:47:48;94005.03;;;1.55;91.61
73600;BME280;61877;48.246;9.220;2022-12-07T02:50:17;94007.38;;;1.56;92.06
73600;BME280;61877;48.246;9.220;2022-12-07T02:52:43;94016.16;;;1.52;92.25
73600;BME280;61877;48.246;9.220;2022-12-07T02:55:08;94015.88;;;1.53;92.35
73600;BME280;61877;48.246;9.220;2022-12-07T02:57:45;94006.09;;;1.54;92.40
73600;BME280;61877;48.246;9.220;2022-12-07T03:00:18;94008.19;;;1.57;91.99
73600;BME280;61877;48.246;9.220;2022-12-07T03:02:51;94016.69;;;1.54;91.87
73600;BME280;61877;48.246;9.220;2022-12-07T03:05:29;94012.44;;;1.53;91.92
73600;BME280;61877;48.246;9.220;2022-12-07T03:08:00;94012.97;;;1.55;91.89
73600;BME280;61877;48.246;9.220;2022-12-07T03:10:34;94012.25;;;1.49;92.20
73600;BME280;61877;48.246;9.220;2022-12-07T03:13:06;94014.09;;;1.49;92.41
73600;BME280;61877;48.246;9.220;2022-12-07T03:15:40;94004.56;;;1.48;92.14
73600;BME280;61877;48.246;9.220;2022-12-07T03:18:09;94013.53;;;1.52;91.73
73600;BME280;61877;48.246;9.220;2022-12-07T03:20:38;94013.53;;;1.52;91.16
73600;BME280;61877;48.246;9.220;2022-12-07T03:23:05;94003.75;;;1.52;91.28
73600;BME280;61877;48.246;9.220;2022-12-07T03:25:33;94003.53;;;1.49;91.67
73600;BME280;61877;48.246;9.220;2022-12-07T03:28:03;93997.09;;;1.55;91.01
73600;BME280;61877;48.246;9.220;2022-12-07T03:30:32;93999.22;;;1.53;90.96
73600;BME280;61877;48.246;9.220;2022-12-07T03:33:03;94004.50;;;1.53;90.82
73600;BME280;61877;48.246;9.220;2022-12-07T03:35:33;93989.22;;;1.50;90.74
73600;BME280;61877;48.246;9.220;2022-12-07T03:38:04;93990.31;;;1.49;90.85
73600;BME280;61877;48.246;9.220;2022-12-07T03:40:35;93988.53;;;1.44;90.63
73600;BME280;61877;48.246;9.220;2022-12-07T03:43:03;93988.72;;;1.48;90.69
73600;BME280;61877;48.246;9.220;2022-12-07T03:45:34;93982.66;;;1.47;90.96
73600;BME280;61877;48.246;9.220;2022-12-07T03:48:08;93991.75;;;1.60;89.74
73600;BME280;61877;48.246;9.220;2022-12-07T03:50:44;93989.44;;;1.53;90.35
73600;BME280;61877;48.246;9.220;2022-12-07T03:53:15;93983.94;;;1.50;91.06
73600;BME280;61877;48.246;9.220;2022-12-07T03:55:44;93988.19;;;1.51;91.40
73600;BME280;61877;48.246;9.220;2022-12-07T03:58:12;93987.88;;;1.52;91.33
73600;BME280;61877;48.246;9.220;2022-12-07T04:00:40;93993.47;;;1.51;90.64
73600;BME280;61877;48.246;9.220;2022-12-07T04:03:08;93989.75;;;1.52;89.84
73600;BME280;61877;48.246;9.220;2022-12-07T04:05:33;93991.81;;;1.55;90.31
73600;BME280;61877;48.246;9.220;2022-12-07T04:07:59;93990.75;;;1.56;89.37
73600;BME280;61877;48.246;9.220;2022-12-07T04:10:25;93981.41;;;1.63;87.95
73600;BME280;61877;48.246;9.220;2022-12-07T04:12:50;93989.63;;;1.62;88.13
73600;BME280;61877;48.246;9.220;2022-12-07T04:15:15;93991.75;;;1.60;87.93
73600;BME280;61877;48.246;9.220;2022-12-07T04:17:41;94000.25;;;1.57;88.35
73600;BME280;61877;48.246;9.220;2022-12-07T04:20:09;93990.31;;;1.49;88.95
73600;BME280;61877;48.246;9.220;2022-12-07T04:22:35;93990.88;;;1.46;89.10
73600;BME280;61877;48.246;9.220;2022-12-07T04:25:00;93982.44;;;1.44;89.10
73600;BME280;61877;48.246;9.220;2022-12-07T04:27:26;93985.72;;;1.36;89.93
73600;BME280;61877;48.246;9.220;2022-12-07T04:29:51;93988.94;;;1.33;90.63
73600;BME280;61877;48.246;9.220;2022-12-07T04:32:17;93979.19;;;1.28;91.30
73600;BME280;61877;48.246;9.220;2022-12-07T04:34:42;93981.41;;;1.40;90.94
73600;BME280;61877;48.246;9.220;2022-12-07T04:37:09;93982.78;;;1.37;90.25
73600;BME280;61877;48.246;9.220;2022-12-07T04:39:34;93983.34;;;1.34;89.75
73600;BME280;61877;48.246;9.220;2022-12-07T04:42:01;93974.91;;;1.32;90.61
73600;BME280;61877;48.246;9.220;2022-12-07T04:44:28;93981.34;;;1.26;91.50
73600;BME280;61877;48.246;9.220;2022-12-07T04:46:54;93981.13;;;1.22;91.62
73600;BME280;61877;48.246;9.220;2022-12-07T04:49:20;93974.53;;;1.20;92.19
73600;BME280;61877;48.246;9.220;2022-12-07T04:51:46;93974.00;;;1.18;92.23
73600;BME280;61877;48.246;9.220;2022-12-07T04:54:13;93983.25;;;1.20;91.96
73600;BME280;61877;48.246;9.220;2022-12-07T04:56:39;93987.72;;;1.20;91.90
73600;BME280;61877;48.246;9.220;2022-12-07T04:59:05;93990.88;;;1.22;92.22
73600;BME280;61877;48.246;9.220;2022-12-07T05:01:31;93986.41;;;1.22;92.66
73600;BME280;61877;48.246;9.220;2022-12-07T05:03:56;93983.53;;;1.19;93.20
73600;BME280;61877;48.246;9.220;2022-12-07T05:06:22;93992.22;;;1.19;93.39
73600;BME280;61877;48.246;9.220;2022-12-07T05:08:48;93991.22;;;1.15;92.91
73600;BME280;61877;48.246;9.220;2022-12-07T05:11:15;93992.56;;;1.13;93.18
73600;BME280;61877;48.246;9.220;2022-12-07T05:13:41;93995.19;;;1.13;93.15
73600;BME280;61877;48.246;9.220;2022-12-07T05:16:06;93997.66;;;1.09;93.07
73600;BME280;61877;48.246;9.220;2022-12-07T05:18:32;93989.97;;;1.08;92.65
73600;BME280;61877;48.246;9.220;2022-12-07T05:20:57;93994.50;;;1.07;92.67
73600;BME280;61877;48.246;9.220;2022-12-07T05:23:23;93995.09;;;0.99;92.46
73600;BME280;61877;48.246;9.220;2022-12-07T05:25:48;94005.09;;;1.02;92.86
73600;BME280;61877;48.246;9.220;2022-12-07T05:28:15;94005.38;;;1.01;92.49
73600;BME280;61877;48.246;9.220;2022-12-07T05:30:40;93995.09;;;0.99;93.31
73600;BME280;61877;48.246;9.220;2022-12-07T05:33:06;93996.72;;;0.95;93.51
73600;BME280;61877;48.246;9.220;2022-12-07T05:35:31;93994.59;;;0.97;92.94
73600;BME280;61877;48.246;9.220;2022-12-07T05:37:57;93988.69;;;1.05;92.28
73600;BME280;61877;48.246;9.220;2022-12-07T05:40:22;93990.06;;;0.98;92.86
73600;BME280;61877;48.246;9.220;2022-12-07T05:42:48;93990.88;;;0.98;93.30
73600;BME280;61877;48.246;9.220;2022-12-07T05:45:15;93993.78;;;0.97;93.64
73600;BME280;61877;48.246;9.220;2022-12-07T05:47:40;94002.00;;;0.95;93.72
73600;BME280;61877;48.246;9.220;2022-12-07T05:50:06;93993.22;;;1.00;92.97
73600;BME280;61877;48.246;9.220;2022-12-07T05:52:32;93997.19;;;1.02;91.53
73600;BME280;61877;48.246;9.220;2022-12-07T05:54:58;93992.47;;;0.99;91.59
73600;BME280;61877;48.246;9.220;2022-12-07T05:57:23;93994.06;;;0.95;91.91
73600;BME280;61877;48.246;9.220;2022-12-07T05:59:49;94006.25;;;0.91;91.90
73600;BME280;61877;48.246;9.220;2022-12-07T06:02:16;94002.34;;;0.89;91.74
73600;BME280;61877;48.246;9.220;2022-12-07T06:04:43;94009.22;;;0.85;92.17
73600;BME280;61877;48.246;9.220;2022-12-07T06:07:10;94007.16;;;0.82;92.12
73600;BME280;61877;48.246;9.220;2022-12-07T06:09:36;94005.22;;;0.92;92.17
73600;BME280;61877;48.246;9.220;2022-12-07T06:12:02;94008.41;;;0.89;91.31
73600;BME280;61877;48.246;9.220;2022-12-07T06:14:28;94008.94;;;0.86;91.21
73600;BME280;61877;48.246;9.220;2022-12-07T06:16:53;94003.72;;;0.81;90.58
73600;BME280;61877;48.246;9.220;2022-12-07T06:19:21;94005.34;;;0.77;90.46
73600;BME280;61877;48.246;9.220;2022-12-07T06:21:46;93998.28;;;0.73;89.54
73600;BME280;61877;48.246;9.220;2022-12-07T06:24:13;94005.16;;;0.69;89.89
73600;BME280;61877;48.246;9.220;2022-12-07T06:26:39;94009.16;;;0.66;90.68
73600;BME280;61877;48.246;9.220;2022-12-07T06:29:05;94014.44;;;0.66;90.07
73600;BME280;61877;48.246;9.220;2022-12-07T06:31:30;94023.44;;;0.60;89.66
73600;BME280;61877;48.246;9.220;2022-12-07T06:33:59;94021.38;;;0.57;90.16
73600;BME280;61877;48.246;9.220;2022-12-07T06:36:26;94024.28;;;0.56;91.55
73600;BME280;61877;48.246;9.220;2022-12-07T06:38:52;94023.00;;;0.48;91.70
73600;BME280;61877;48.246;9.220;2022-12-07T06:41:17;94028.59;;;0.42;91.60
73600;BME280;61877;48.246;9.220;2022-12-07T06:43:43;94023.91;;;0.34;91.93
73600;BME280;61877;48.246;9.220;2022-12-07T06:46:08;94018.72;;;0.24;91.52
73600;BME280;61877;48.246;9.220;2022-12-07T06:48:34;94021.94;;;0.16;92.00
73600;BME280;61877;48.246;9.220;2022-12-07T06:50:59;94024.66;;;0.06;92.69
73600;BME280;61877;48.246;9.220;2022-12-07T06:53:26;94024.44;;;-0.03;93.82
73600;BME280;61877;48.246;9.220;2022-12-07T06:55:51;94028.75;;;-0.17;93.30
73600;BME280;61877;48.246;9.220;2022-12-07T06:58:17;94031.44;;;-0.27;93.98
73600;BME280;61877;48.246;9.220;2022-12-07T07:00:43;94026.47;;;-0.39;94.79
73600;BME280;61877;48.246;9.220;2022-12-07T07:03:08;94021.81;;;-0.52;94.53
73600;BME280;61877;48.246;9.220;2022-12-07T07:05:34;94028.94;;;-0.62;95.32
73600;BME280;61877;48.246;9.220;2022-12-07T07:07:59;94028.47;;;-0.74;95.17
73600;BME280;61877;48.246;9.220;2022-12-07T07:10:26;94016.91;;;-0.78;96.39
73600;BME280;61877;48.246;9.220;2022-12-07T07:12:52;94024.81;;;-0.78;96.95
73600;BME280;61877;48.246;9.220;2022-12-07T07:15:17;94027.91;;;-0.71;96.60
73600;BME280;61877;48.246;9.220;2022-12-07T07:17:43;94025.06;;;-0.75;96.38
73600;BME280;61877;48.246;9.220;2022-12-07T07:20:09;94025.06;;;-0.80;97.18
73600;BME280;61877;48.246;9.220;2022-12-07T07:22:35;94030.38;;;-0.90;96.65
73600;BME280;61877;48.246;9.220;2022-12-07T07:25:00;94031.69;;;-0.97;96.65
73600;BME280;61877;48.246;9.220;2022-12-07T07:27:30;94022.50;;;-1.00;97.30
73600;BME280;61877;48.246;9.220;2022-12-07T07:29:56;94029.34;;;-1.04;96.94
73600;BME280;61877;48.246;9.220;2022-12-07T07:32:21;94028.31;;;-1.08;97.27
73600;BME280;61877;48.246;9.220;2022-12-07T07:34:47;94028.56;;;-1.09;96.94
73600;BME280;61877;48.246;9.220;2022-12-07T07:37:12;94031.44;;;-1.11;96.94
73600;BME280;61877;48.246;9.220;2022-12-07T07:39:38;94021.72;;;-1.10;97.14
73600;BME280;61877;48.246;9.220;2022-12-07T07:42:04;94033.28;;;-0.96;97.11
73600;BME280;61877;48.246;9.220;2022-12-07T07:44:33;94024.53;;;-0.82;97.32
73600;BME280;61877;48.246;9.220;2022-12-07T07:47:27;94032.41;;;-0.67;97.28
73600;BME280;61877;48.246;9.220;2022-12-07T07:49:52;94033.13;;;-0.56;96.64
73600;BME280;61877;48.246;9.220;2022-12-07T07:52:20;94037.31;;;-0.45;96.87
73600;BME280;61877;48.246;9.220;2022-12-07T07:54:46;94040.41;;;-0.33;96.19
73600;BME280;61877;48.246;9.220;2022-12-07T07:57:11;94035.84;;;-0.18;96.34
73600;BME280;61877;48.246;9.220;2022-12-07T07:59:38;94039.97;;;-0.02;95.70
73600;BME280;61877;48.246;9.220;2022-12-07T08:02:03;94036.53;;;0.03;94.27
73600;BME280;61877;48.246;9.220;2022-12-07T08:04:29;94037.81;;;0.11;94.10
73600;BME280;61877;48.246;9.220;2022-12-07T08:06:56;94032.28;;;0.07;93.47
73600;BME280;61877;48.246;9.220;2022-12-07T08:09:21;94032.19;;;0.22;93.39
73600;BME280;61877;48.246;9.220;2022-12-07T08:11:47;94029.53;;;0.22;93.00
73600;BME280;61877;48.246;9.220;2022-12-07T08:14:37;94032.94;;;0.28;93.29
73600;BME280;61877;48.246;9.220;2022-12-07T08:17:05;94032.03;;;0.42;93.68
73600;BME280;61877;48.246;9.220;2022-12-07T08:19:31;94037.25;;;0.52;92.73
73600;BME280;61877;48.246;9.220;2022-12-07T08:21:56;94039.00;;;0.62;92.35
73600;BME280;61877;48.246;9.220;2022-12-07T08:24:22;94040.19;;;0.79;91.87
73600;BME280;61877;48.246;9.220;2022-12-07T08:26:48;94038.97;;;0.95;90.95
73600;BME280;61877;48.246;9.220;2022-12-07T08:29:13;94047.56;;;1.11;90.32
73600;BME280;61877;48.246;9.220;2022-12-07T08:31:38;94047.66;;;1.24;89.91
73600;BME280;61877;48.246;9.220;2022-12-07T08:34:05;94036.50;;;1.33;89.15
73600;BME280;61877;48.246;9.220;2022-12-07T08:36:31;94045.53;;;1.26;89.14
73600;BME280;61877;48.246;9.220;2022-12-07T08:38:56;94045.47;;;1.31;89.36
73600;BME280;61877;48.246;9.220;2022-12-07T08:41:21;94040.66;;;1.39;88.23
73600;BME280;61877;48.246;9.220;2022-12-07T08:43:47;94038.88;;;1.53;87.56
73600;BME280;61877;48.246;9.220;2022-12-07T08:46:17;94042.38;;;1.72;86.69
73600;BME280;61877;48.246;9.220;2022-12-07T08:48:48;94045.81;;;1.91;84.68
73600;BME280;61877;48.246;9.220;2022-12-07T08:51:16;94038.56;;;2.20;83.44
73600;BME280;61877;48.246;9.220;2022-12-07T08:53:42;94037.91;;;2.28;78.65
73600;BME280;61877;48.246;9.220;2022-12-07T08:56:09;94037.31;;;2.49;71.52
73600;BME280;61877;48.246;9.220;2022-12-07T08:58:35;94043.31;;;2.87;73.81
73600;BME280;61877;48.246;9.220;2022-12-07T09:01:03;94033.81;;;2.86;73.46
73600;BME280;61877;48.246;9.220;2022-12-07T09:03:29;94032.28;;;2.99;71.95
73600;BME280;61877;48.246;9.220;2022-12-07T09:05:54;94034.19;;;3.25;73.67
73600;BME280;61877;48.246;9.220;2022-12-07T09:08:22;94033.38;;;3.11;65.79
73600;BME280;61877;48.246;9.220;2022-12-07T09:10:59;94039.66;;;3.15;67.31
73600;BME280;61877;48.246;9.220;2022-12-07T09:16:27;94026.16;;;3.57;66.71
73600;BME280;61877;48.246;9.220;2022-12-07T09:18:52;94026.16;;;3.84;64.85
73600;BME280;61877;48.246;9.220;2022-12-07T09:21:18;94023.28;;;3.94;63.60
73600;BME280;61877;48.246;9.220;2022-12-07T09:23:44;94030.47;;;3.94;64.63
73600;BME280;61877;48.246;9.220;2022-12-07T09:26:10;94036.16;;;4.01;64.28
73600;BME280;61877;48.246;9.220;2022-12-07T09:28:36;94033.22;;;4.03;65.23
73600;BME280;61877;48.246;9.220;2022-12-07T09:31:02;94034.75;;;4.04;62.84
73600;BME280;61877;48.246;9.220;2022-12-07T09:33:28;94032.41;;;4.16;62.55
73600;BME280;61877;48.246;9.220;2022-12-07T09:35:53;94032.34;;;4.87;62.21
73600;BME280;61877;48.246;9.220;2022-12-07T09:38:19;94030.16;;;6.45;56.86
73600;BME280;61877;48.246;9.220;2022-12-07T09:40:49;94026.13;;;7.83;52.17
73600;BME280;61877;48.246;9.220;2022-12-07T09:43:16;94019.22;;;9.02;48.75
73600;BME280;61877;48.246;9.220;2022-12-07T09:45:44;94018.25;;;10.32;45.07
73600;BME280;61877;48.246;9.220;2022-12-07T09:48:17;94018.09;;;11.32;41.78
73600;BME280;61877;48.246;9.220;2022-12-07T09:50:43;94008.47;;;11.03;41.29
73600;BME280;61877;48.246;9.220;2022-12-07T09:53:11;94005.66;;;12.33;38.42
73600;BME280;61877;48.246;9.220;2022-12-07T09:55:40;93999.72;;;12.58;37.36
73600;BME280;61877;48.246;9.220;2022-12-07T09:58:12;93996.88;;;13.43;36.11
73600;BME280;61877;48.246;9.220;2022-12-07T10:00:41;93999.25;;;13.67;36.53
73600;BME280;61877;48.246;9.220;2022-12-07T10:03:08;93998.59;;;13.74;34.40
73600;BME280;61877;48.246;9.220;2022-12-07T10:05:38;93991.13;;;12.87;35.79
73600;BME280;61877;48.246;9.220;2022-12-07T10:08:07;93983.22;;;13.33;36.11
73600;BME280;61877;48.246;9.220;2022-12-07T10:10:34;93989.41;;;11.95;37.85
73600;BME280;61877;48.246;9.220;2022-12-07T10:13:02;93983.50;;;13.69;35.10
73600;BME280;61877;48.246;9.220;2022-12-07T10:15:48;93983.56;;;13.73;34.05
73600;BME280;61877;48.246;9.220;2022-12-07T10:18:19;93973.88;;;14.95;34.93
73600;BME280;61877;48.246;9.220;2022-12-07T10:20:46;93968.56;;;14.73;34.80
73600;BME280;61877;48.246;9.220;2022-12-07T10:23:14;93974.94;;;15.17;32.33
73600;BME280;61877;48.246;9.220;2022-12-07T10:25:40;93971.03;;;14.55;33.23
73600;BME280;61877;48.246;9.220;2022-12-07T10:28:13;93971.69;;;14.49;32.69
73600;BME280;61877;48.246;9.220;2022-12-07T10:30:58;93964.16;;;14.35;34.43
73600;BME280;61877;48.246;9.220;2022-12-07T10:33:33;93951.59;;;16.19;30.83
73600;BME280;61877;48.246;9.220;2022-12-07T10:36:00;93951.03;;;16.43;30.82
73600;BME280;61877;48.246;9.220;2022-12-07T10:38:27;93953.22;;;15.80;32.21
73600;BME280;61877;48.246;9.220;2022-12-07T10:41:04;93950.25;;;15.95;31.31
73600;BME280;61877;48.246;9.220;2022-12-07T10:43:30;93948.88;;;17.48;28.11
73600;BME280;61877;48.246;9.220;2022-12-07T10:46:09;93943.47;;;17.66;28.74
73600;BME280;61877;48.246;9.220;2022-12-07T10:48:47;93940.66;;;17.27;28.01
73600;BME280;61877;48.246;9.220;2022-12-07T10:51:24;93946.94;;;16.63;30.38
73600;BME280;61877;48.246;9.220;2022-12-07T10:54:00;93937.81;;;16.96;29.57
73600;BME280;61877;48.246;9.220;2022-12-07T10:56:58;93935.72;;;16.64;30.89
73600;BME280;61877;48.246;9.220;2022-12-07T10:59:43;93933.16;;;17.00;30.34
73600;BME280;61877;48.246;9.220;2022-12-07T11:02:23;93938.56;;;16.93;31.19
73600;BME280;61877;48.246;9.220;2022-12-07T11:04:59;93927.41;;;17.12;31.09
73600;BME280;61877;48.246;9.220;2022-12-07T11:07:59;93914.28;;;17.17;29.25
73600;BME280;61877;48.246;9.220;2022-12-07T11:10:56;93919.09;;;17.62;27.67
73600;BME280;61877;48.246;9.220;2022-12-07T11:13:29;93908.25;;;17.80;27.24
73600;BME280;61877;48.246;9.220;2022-12-07T11:16:21;93912.47;;;18.37;26.76
73600;BME280;61877;48.246;9.220;2022-12-07T11:22:19;93912.50;;;18.30;26.79
73600;BME280;61877;48.246;9.220;2022-12-07T11:24:52;93903.97;;;18.35;25.97
73600;BME280;61877;48.246;9.220;2022-12-07T11:27:23;93903.09;;;17.40;29.39
73600;BME280;61877;48.246;9.220;2022-12-07T11:30:13;93909.25;;;17.26;29.90
73600;BME280;61877;48.246;9.220;2022-12-07T11:33:00;93900.69;;;17.10;29.42
73600;BME280;61877;48.246;9.220;2022-12-07T11:35:45;93906.63;;;14.87;33.03
73600;BME280;61877;48.246;9.220;2022-12-07T11:38:16;93903.25;;;13.85;36.67
73600;BME280;61877;48.246;9.220;2022-12-07T11:40:54;93897.88;;;13.40;37.36
73600;BME280;61877;48.246;9.220;2022-12-07T11:43:26;93906.34;;;11.58;42.05
73600;BME280;61877;48.246;9.220;2022-12-07T11:45:58;93901.22;;;9.76;45.31
73600;BME280;61877;48.246;9.220;2022-12-07T11:48:30;93910.31;;;9.02;48.28
73600;BME280;61877;48.246;9.220;2022-12-07T11:50:58;93905.38;;;8.27;50.43
73600;BME280;61877;48.246;9.220;2022-12-07T11:53:31;93909.13;;;7.10;53.49
73600;BME280;61877;48.246;9.220;2022-12-07T11:56:03;93906.41;;;7.27;53.46
73600;BME280;61877;48.246;9.220;2022-12-07T11:58:47;93909.59;;;6.66;55.31
73600;BME280;61877;48.246;9.220;2022-12-07T12:01:22;93901.00;;;6.34;57.41
73600;BME280;61877;48.246;9.220;2022-12-07T12:03:51;93895.84;;;6.38;59.04
73600;BME280;61877;48.246;9.220;2022-12-07T12:06:17;93897.88;;;6.15;59.63
73600;BME280;61877;48.246;9.220;2022-12-07T12:08:48;93894.13;;;6.16;60.35
73600;BME280;61877;48.246;9.220;2022-12-07T12:11:26;93892.34;;;5.78;59.12
73600;BME280;61877;48.246;9.220;2022-12-07T12:14:10;93887.38;;;5.85;59.63
73600;BME280;61877;48.246;9.220;2022-12-07T12:16:51;93883.94;;;5.93;60.30
73600;BME280;61877;48.246;9.220;2022-12-07T12:19:27;93885.22;;;5.87;60.73
73600;BME280;61877;48.246;9.220;2022-12-07T12:22:00;93880.81;;;6.08;61.67
73600;BME280;61877;48.246;9.220;2022-12-07T12:24:32;93885.34;;;6.07;61.61
73600;BME280;61877;48.246;9.220;2022-12-07T12:27:02;93877.53;;;6.19;60.98
73600;BME280;61877;48.246;9.220;2022-12-07T12:29:32;93875.03;;;6.14;61.21
73600;BME280;61877;48.246;9.220;2022-12-07T12:32:14;93874.22;;;6.05;60.93
73600;BME280;61877;48.246;9.220;2022-12-07T12:34:58;93867.47;;;6.33;59.52
73600;BME280;61877;48.246;9.220;2022-12-07T12:37:40;93865.09;;;6.40;57.75
73600;BME280;61877;48.246;9.220;2022-12-07T12:40:40;93866.72;;;6.16;56.78
73600;BME280;61877;48.246;9.220;2022-12-07T12:43:45;93854.31;;;6.28;58.86
73600;BME280;61877;48.246;9.220;2022-12-07T12:49:33;93861.84;;;6.26;57.86
73600;BME280;61877;48.246;9.220;2022-12-07T12:52:00;93865.91;;;6.32;58.48
73600;BME280;61877;48.246;9.220;2022-12-07T12:54:29;93861.50;;;6.45;59.31
73600;BME280;61877;48.246;9.220;2022-12-07T12:57:03;93862.44;;;6.40;57.74
73600;BME280;61877;48.246;9.220;2022-12-07T12:59:32;93854.03;;;6.21;53.13
73600;BME280;61877;48.246;9.220;2022-12-07T13:02:15;93861.88;;;6.09;55.26
73600;BME280;61877;48.246;9.220;2022-12-07T13:04:53;93859.00;;;5.72;56.50
73600;BME280;61877;48.246;9.220;2022-12-07T13:07:47;93859.94;;;5.59;57.08
73600;BME280;61877;48.246;9.220;2022-12-07T13:10:21;93857.91;;;5.47;57.54
73600;BME280;61877;48.246;9.220;2022-12-07T13:12:57;93861.31;;;5.31;58.70
73600;BME280;61877;48.246;9.220;2022-12-07T13:15:36;93857.41;;;4.89;58.58
73600;BME280;61877;48.246;9.220;2022-12-07T13:18:21;93856.81;;;4.61;59.59
73600;BME280;61877;48.246;9.220;2022-12-07T13:20:49;93856.84;;;4.70;59.86
73600;BME280;61877;48.246;9.220;2022-12-07T13:23:18;93847.97;;;4.44;60.25
73600;BME280;61877;48.246;9.220;2022-12-07T13:25:49;93851.38;;;4.36;62.68
73600;BME280;61877;48.246;9.220;2022-12-07T13:28:18;93846.56;;;4.16;63.55
73600;BME280;61877;48.246;9.220;2022-12-07T13:31:00;93844.53;;;4.13;62.43
73600;BME280;61877;48.246;9.220;2022-12-07T13:33:27;93847.06;;;4.18;61.85
73600;BME280;61877;48.246;9.220;2022-12-07T13:35:54;93852.06;;;4.19;63.13